createdAt,value
2023-05-19T00:00:10.616Z,4.60
2023-05-19T00:03:00.584Z,5.40
2023-05-19T00:05:30.641Z,3.90
2023-05-19T00:08:01.335Z,3.80
2023-05-19T00:10:31.922Z,5.10
2023-05-19T00:13:01.030Z,4.20
2023-05-19T00:15:29.886Z,4.40
2023-05-19T00:17:59.054Z,5.10
2023-05-19T00:20:27.483Z,5.40
2023-05-19T00:22:55.968Z,3.70
2023-05-19T00:25:24.410Z,4.70
2023-05-19T00:27:52.805Z,4.20
2023-05-19T00:30:22.922Z,4.70
2023-05-19T00:32:51.846Z,4.70
2023-05-19T00:35:20.471Z,4.50
2023-05-19T00:37:49.066Z,4.20
2023-05-19T00:40:17.680Z,5.10
2023-05-19T00:42:46.027Z,5.00
2023-05-19T00:45:14.533Z,5.30
2023-05-19T00:47:42.967Z,6.50
2023-05-19T00:50:11.403Z,9.30
2023-05-19T00:52:39.784Z,7.70
2023-05-19T00:55:09.846Z,7.40
2023-05-19T00:57:38.806Z,6.40
2023-05-19T01:00:08.406Z,4.80
2023-05-19T01:02:40.105Z,4.60
2023-05-19T01:05:09.422Z,5.00
2023-05-19T01:07:38.242Z,4.90
2023-05-19T01:10:07.262Z,4.80
2023-05-19T01:12:36.698Z,4.40
2023-05-19T01:15:06.680Z,4.60
2023-05-19T01:18:22.424Z,5.10
2023-05-19T01:21:03.784Z,6.80
2023-05-19T01:23:52.008Z,7.40
2023-05-19T01:26:55.272Z,5.80
2023-05-19T01:30:02.879Z,5.70
2023-05-19T01:32:33.714Z,5.40
2023-05-19T01:35:04.502Z,5.30
2023-05-19T01:37:34.275Z,5.40
2023-05-19T01:40:02.807Z,5.30
2023-05-19T01:42:37.403Z,5.30
2023-05-19T01:45:10.628Z,5.10
2023-05-19T01:47:43.955Z,5.30
2023-05-19T01:50:12.497Z,5.20
2023-05-19T01:52:40.998Z,5.10
2023-05-19T01:55:09.919Z,4.50
2023-05-19T01:58:33.662Z,5.20
2023-05-19T02:01:31.410Z,4.50
2023-05-19T02:04:19.682Z,5.10
2023-05-19T02:07:13.497Z,5.30
2023-05-19T02:10:05.832Z,5.30
2023-05-19T02:12:40.761Z,4.60
2023-05-19T02:15:17.387Z,5.10
2023-05-19T02:17:50.784Z,5.80
2023-05-19T02:20:19.452Z,5.10
2023-05-19T02:22:48.661Z,4.90
2023-05-19T02:25:17.132Z,4.60
2023-05-19T02:27:45.814Z,5.20
2023-05-19T02:30:14.321Z,6.00
2023-05-19T02:32:42.756Z,4.30
2023-05-19T02:35:11.432Z,5.50
2023-05-19T02:37:39.976Z,4.30
2023-05-19T02:40:09.302Z,5.20
2023-05-19T02:42:37.908Z,5.40
2023-05-19T02:45:07.216Z,5.00
2023-05-19T02:47:38.768Z,4.00
2023-05-19T02:50:08.556Z,4.90
2023-05-19T02:52:36.978Z,5.00
2023-05-19T02:55:06.088Z,4.30
2023-05-19T02:57:35.049Z,3.60
2023-05-19T03:00:04.686Z,4.40
2023-05-19T03:02:34.258Z,3.70
2023-05-19T03:05:03.845Z,4.30
2023-05-19T03:07:33.844Z,3.70
2023-05-19T03:10:06.657Z,5.10
2023-05-19T03:12:35.278Z,3.80
2023-05-19T03:15:04.099Z,4.60
2023-05-19T03:17:34.453Z,4.30
2023-05-19T03:20:04.111Z,4.70
2023-05-19T03:22:33.088Z,4.60
2023-05-19T03:25:01.577Z,4.10
2023-05-19T03:27:30.115Z,4.20
2023-05-19T03:29:58.483Z,4.10
2023-05-19T03:32:27.033Z,4.10
2023-05-19T03:34:55.446Z,4.70
2023-05-19T03:37:23.855Z,4.20
2023-05-19T03:39:52.270Z,4.90
2023-05-19T03:42:20.738Z,4.60
2023-05-19T03:44:49.190Z,4.50
2023-05-19T03:47:17.779Z,4.80
2023-05-19T03:49:46.291Z,4.70
2023-05-19T03:52:15.727Z,4.90
2023-05-19T03:54:45.138Z,5.50
2023-05-19T03:57:14.917Z,5.50
2023-05-19T03:59:44.024Z,5.20
2023-05-19T04:02:12.545Z,4.70
2023-05-19T04:04:41.407Z,5.70
2023-05-19T04:07:09.812Z,5.30
2023-05-19T04:09:39.008Z,5.10
2023-05-19T04:12:07.918Z,5.00
2023-05-19T04:14:36.454Z,5.60
2023-05-19T04:17:05.515Z,5.30
2023-05-19T04:19:33.855Z,5.10
2023-05-19T04:22:02.182Z,5.20
2023-05-19T04:24:30.604Z,5.10
2023-05-19T04:27:02.719Z,5.20
2023-05-19T04:29:32.669Z,5.30
2023-05-19T04:32:01.167Z,5.10
2023-05-19T04:34:29.554Z,5.30
2023-05-19T04:36:57.944Z,5.70
2023-05-19T04:39:26.325Z,5.10
2023-05-19T04:41:54.756Z,5.40
2023-05-19T04:44:23.123Z,4.80
2023-05-19T04:46:54.336Z,5.10
2023-05-19T04:49:24.433Z,5.10
2023-05-19T04:51:55.586Z,4.90
2023-05-19T04:54:24.282Z,4.80
2023-05-19T04:56:52.643Z,4.40
2023-05-19T04:59:22.536Z,4.50
2023-05-19T05:01:50.968Z,4.30
2023-05-19T05:04:21.793Z,4.60
2023-05-19T05:06:50.677Z,4.40
2023-05-19T05:09:20.013Z,5.00
2023-05-19T05:11:48.822Z,3.70
2023-05-19T05:14:17.598Z,4.50
2023-05-19T05:16:46.525Z,4.00
2023-05-19T05:19:15.460Z,3.50
2023-05-19T05:21:44.346Z,4.40
2023-05-19T05:24:13.671Z,3.70
2023-05-19T05:26:42.974Z,3.60
2023-05-19T05:29:11.381Z,3.40
2023-05-19T05:31:39.793Z,4.50
2023-05-19T05:34:08.335Z,3.90
2023-05-19T05:36:36.934Z,3.50
2023-05-19T05:39:05.696Z,3.60
2023-05-19T05:41:36.969Z,4.70
2023-05-19T05:44:05.512Z,3.60
2023-05-19T05:46:34.023Z,3.80
2023-05-19T05:49:02.933Z,3.40
2023-05-19T05:51:33.004Z,3.80
2023-05-19T05:54:02.679Z,3.70
2023-05-19T05:56:33.752Z,4.10
2023-05-19T05:59:02.855Z,3.80
2023-05-19T06:01:33.642Z,3.50
2023-05-19T06:04:03.436Z,4.50
2023-05-19T06:06:32.736Z,4.60
2023-05-19T06:09:01.206Z,5.50
2023-05-19T06:11:29.998Z,4.90
2023-05-19T06:16:42.978Z,4.80
2023-05-19T06:19:11.957Z,3.80
2023-05-19T06:21:43.035Z,4.70
2023-05-19T06:24:12.201Z,4.20
2023-05-19T06:30:18.554Z,4.50
2023-05-19T06:32:47.036Z,5.10
2023-05-19T06:35:15.576Z,4.60
2023-05-19T06:37:43.949Z,4.60
2023-05-19T06:40:13.362Z,4.80
2023-05-19T06:42:41.720Z,5.00
2023-05-19T06:45:10.866Z,4.40
2023-05-19T06:47:43.541Z,4.20
2023-05-19T06:50:11.907Z,4.40
2023-05-19T06:52:41.065Z,4.30
2023-05-19T06:55:09.879Z,4.50
2023-05-19T06:57:39.944Z,4.50
2023-05-19T07:00:12.610Z,3.70
2023-05-19T07:02:42.887Z,4.10
2023-05-19T07:05:11.464Z,3.40
2023-05-19T07:07:42.656Z,3.80
2023-05-19T07:10:11.669Z,3.80
2023-05-19T07:12:40.091Z,3.70
2023-05-19T07:15:08.981Z,3.70
2023-05-19T07:17:37.732Z,3.00
2023-05-19T07:31:57.866Z,3.10
2023-05-19T07:34:26.555Z,3.20
2023-05-19T07:36:55.171Z,3.90
2023-05-19T07:39:35.820Z,2.90
2023-05-19T07:42:04.902Z,3.80
2023-05-19T07:44:34.611Z,2.20
2023-05-19T07:47:03.173Z,3.00
2023-05-19T07:49:31.713Z,3.40
2023-05-19T07:52:00.127Z,2.80
2023-05-19T07:54:28.518Z,6.60
2023-05-19T07:56:56.918Z,13.00
2023-05-19T07:59:25.265Z,2.80
2023-05-19T08:01:53.671Z,3.10
2023-05-19T08:04:22.115Z,4.50
2023-05-19T08:06:55.782Z,4.00
2023-05-19T08:09:24.145Z,3.20
2023-05-19T08:11:52.525Z,3.00
2023-05-19T08:14:22.884Z,3.40
2023-05-19T08:16:51.828Z,3.60
2023-05-19T08:19:20.880Z,2.40
2023-05-19T08:21:49.724Z,2.60
2023-05-19T08:24:18.106Z,2.40
2023-05-19T08:26:47.061Z,3.00
2023-05-19T08:29:15.647Z,2.60
2023-05-19T08:31:45.157Z,2.30
2023-05-19T08:34:15.974Z,3.10
2023-05-19T08:36:45.414Z,3.90
2023-05-19T08:39:16.223Z,3.60
2023-05-19T08:41:44.972Z,3.90
2023-05-19T08:44:13.407Z,2.90
2023-05-19T08:46:42.148Z,2.80
2023-05-19T08:49:14.079Z,2.60
2023-05-19T08:51:58.648Z,2.30
2023-05-19T08:54:37.374Z,2.60
2023-05-19T08:57:06.852Z,2.50
2023-05-19T08:59:35.320Z,2.10
2023-05-19T09:02:04.960Z,2.70
2023-05-19T09:04:33.957Z,2.10
2023-05-19T09:07:04.167Z,3.10
2023-05-19T09:09:32.733Z,3.00
2023-05-19T09:12:01.313Z,2.80
2023-05-19T09:14:30.849Z,3.80
2023-05-19T09:16:59.380Z,3.50
2023-05-19T09:19:31.327Z,2.90
2023-05-19T09:22:03.483Z,2.70
2023-05-19T09:24:33.846Z,3.10
2023-05-19T09:27:02.301Z,2.60
2023-05-19T09:29:31.114Z,3.70
2023-05-19T09:32:05.869Z,3.50
2023-05-19T09:34:34.390Z,3.80
2023-05-19T09:37:02.743Z,4.00
2023-05-19T09:39:34.774Z,4.10
2023-05-19T09:42:05.498Z,4.00
2023-05-19T09:53:46.470Z,3.30
2023-05-19T09:56:15.275Z,3.50
2023-05-19T09:58:43.874Z,3.50
2023-05-19T10:01:12.714Z,3.70
2023-05-19T10:03:42.616Z,3.50
2023-05-19T10:06:11.701Z,4.10
2023-05-19T10:08:42.625Z,4.30
2023-05-19T10:11:12.183Z,3.80
2023-05-19T10:13:41.318Z,4.30
2023-05-19T10:16:11.066Z,4.30
2023-05-19T10:18:40.254Z,3.80
2023-05-19T10:21:09.601Z,4.40
2023-05-19T10:23:38.723Z,4.60
2023-05-19T10:26:09.261Z,4.70
2023-05-19T10:28:41.070Z,4.80
2023-05-19T10:31:17.070Z,5.20
2023-05-19T10:34:32.689Z,5.00
2023-05-19T10:37:28.555Z,4.40
2023-05-19T10:40:13.719Z,5.50
2023-05-19T10:43:11.805Z,6.70
2023-05-19T10:45:54.976Z,5.60
2023-05-19T10:48:23.489Z,7.50
2023-05-19T10:50:56.474Z,6.40
2023-05-19T10:53:32.705Z,6.70
2023-05-19T10:56:07.036Z,6.50
2023-05-19T10:58:49.331Z,5.90
2023-05-19T11:01:20.879Z,6.90
2023-05-19T11:03:59.685Z,7.10
2023-05-19T11:06:34.216Z,6.60
2023-05-19T11:09:22.512Z,6.90
2023-05-19T11:11:55.219Z,6.40
2023-05-19T11:14:27.629Z,7.50
2023-05-19T11:17:00.297Z,6.20
2023-05-19T11:19:31.220Z,5.70
2023-05-19T11:22:13.752Z,6.80
2023-05-19T11:24:50.083Z,6.40
2023-05-19T11:27:33.638Z,6.90
2023-05-19T11:30:09.392Z,6.80
2023-05-19T11:32:42.728Z,6.00
2023-05-19T11:35:11.689Z,6.50
2023-05-19T11:37:43.625Z,5.60
2023-05-19T11:40:13.754Z,5.40
2023-05-19T11:42:42.287Z,5.70
2023-05-19T11:45:10.819Z,6.80
2023-05-19T11:47:59.674Z,6.30
2023-05-19T11:50:27.748Z,6.20
2023-05-19T11:52:56.997Z,7.60
2023-05-19T11:55:25.420Z,6.00
2023-05-19T12:00:39.196Z,6.30
2023-05-19T12:06:19.855Z,6.00
2023-05-19T12:08:50.521Z,6.40
2023-05-19T12:11:20.133Z,5.60
2023-05-19T12:13:50.867Z,5.70
2023-05-19T12:16:23.031Z,6.20
2023-05-19T12:18:51.495Z,6.90
2023-05-19T12:21:19.960Z,6.60
2023-05-19T12:23:48.468Z,6.30
2023-05-19T12:26:19.446Z,5.60
2023-05-19T12:28:51.004Z,7.20
2023-05-19T12:31:23.579Z,7.10
2023-05-19T12:33:52.441Z,6.60
2023-05-19T12:36:23.555Z,7.00
2023-05-19T12:38:55.694Z,7.60
2023-05-19T12:41:27.440Z,7.30
2023-05-19T12:43:55.951Z,8.50
2023-05-19T12:46:24.417Z,8.40
2023-05-19T12:48:53.488Z,8.40
2023-05-19T12:51:21.907Z,8.00
2023-05-19T12:53:50.887Z,7.70
2023-05-19T12:56:19.464Z,9.20
2023-05-19T12:58:47.858Z,8.00
2023-05-19T13:01:18.615Z,9.60
2023-05-19T13:03:47.475Z,9.40
2023-05-19T13:06:16.239Z,10.20
2023-05-19T13:08:47.394Z,9.90
2023-05-19T13:11:15.816Z,9.30
2023-05-19T13:13:47.335Z,9.80
2023-05-19T13:16:15.982Z,9.90
2023-05-19T13:18:44.661Z,9.80
2023-05-19T13:21:13.656Z,9.50
2023-05-19T13:23:42.008Z,9.90
2023-05-19T13:26:12.904Z,9.60
2023-05-19T13:28:41.506Z,9.50
2023-05-19T13:31:10.088Z,8.60
2023-05-19T13:33:38.591Z,10.30
2023-05-19T13:36:07.136Z,11.10
2023-05-19T13:38:35.566Z,10.50
2023-05-19T13:41:04.168Z,11.00
2023-05-19T13:43:32.514Z,10.30
2023-05-19T13:46:01.141Z,9.70
2023-05-19T13:48:29.721Z,10.50
2023-05-19T13:50:58.197Z,10.70
2023-05-19T13:53:27.555Z,10.10
2023-05-19T13:55:56.302Z,9.90
2023-05-19T13:58:24.687Z,10.90
2023-05-19T14:00:54.814Z,8.90
2023-05-19T14:03:24.981Z,11.00
2023-05-19T14:05:53.630Z,11.90
2023-05-19T14:08:22.927Z,13.00
2023-05-19T14:10:51.968Z,12.70
2023-05-19T14:13:32.323Z,13.00
2023-05-19T14:16:03.054Z,11.30
2023-05-19T14:18:32.482Z,11.10
2023-05-19T14:21:00.983Z,10.90
2023-05-19T14:23:30.331Z,10.80
2023-05-19T14:26:31.300Z,11.10
2023-05-19T14:29:00.162Z,11.00
2023-05-19T14:31:28.612Z,12.10
2023-05-19T14:33:57.154Z,11.80
2023-05-19T14:36:25.756Z,11.40
2023-05-19T14:38:54.101Z,11.00
2023-05-19T14:41:22.729Z,11.60
2023-05-19T14:43:51.187Z,10.50
2023-05-19T14:46:19.649Z,11.10
2023-05-19T14:48:48.193Z,11.60
2023-05-19T14:51:16.626Z,11.50
2023-05-19T14:53:45.047Z,11.10
2023-05-19T14:56:13.419Z,10.80
2023-05-19T14:58:41.888Z,11.90
2023-05-19T15:01:10.339Z,11.60
2023-05-19T15:03:38.766Z,11.80
2023-05-19T15:06:10.986Z,12.00
2023-05-19T15:08:40.834Z,11.90
2023-05-19T15:11:09.257Z,12.10
2023-05-19T15:13:37.686Z,12.40
2023-05-19T15:16:16.771Z,14.10
2023-05-19T15:18:46.629Z,12.40
2023-05-19T15:21:15.780Z,13.20
2023-05-19T15:23:44.794Z,13.30
2023-05-19T15:26:13.355Z,13.50
2023-05-19T15:28:41.846Z,12.10
2023-05-19T15:31:10.618Z,14.00
2023-05-19T15:33:39.120Z,12.00
2023-05-19T15:36:07.543Z,13.50
2023-05-19T15:38:36.919Z,12.90
2023-05-19T15:41:08.504Z,11.70
2023-05-19T15:43:37.039Z,13.00
2023-05-19T15:46:05.646Z,13.90
2023-05-19T15:48:34.399Z,12.40
2023-05-19T15:51:02.916Z,14.00
2023-05-19T15:53:31.394Z,13.40
2023-05-19T15:55:59.797Z,13.20
2023-05-19T15:58:28.217Z,12.50
2023-05-19T16:00:56.650Z,13.40
2023-05-19T16:03:25.515Z,13.30
2023-05-19T16:05:54.348Z,14.00
2023-05-19T16:08:22.893Z,13.00
2023-05-19T16:10:51.257Z,14.80
2023-05-19T16:13:19.741Z,11.80
2023-05-19T16:15:48.665Z,14.10
2023-05-19T16:18:17.422Z,12.90
2023-05-19T16:20:46.371Z,13.20
2023-05-19T16:23:14.745Z,12.10
2023-05-19T16:25:43.128Z,12.80
2023-05-19T16:28:11.481Z,13.50
2023-05-19T16:30:40.394Z,13.10
2023-05-19T16:33:08.981Z,12.10
2023-05-19T16:35:37.552Z,12.20
2023-05-19T16:38:06.093Z,11.30
2023-05-19T16:40:35.430Z,11.90
2023-05-19T16:43:04.742Z,11.40
2023-05-19T16:45:33.174Z,12.90
2023-05-19T16:48:01.736Z,11.50
2023-05-19T16:50:30.821Z,11.90
2023-05-19T16:52:59.232Z,12.20
2023-05-19T16:55:27.681Z,12.20
2023-05-19T16:57:56.333Z,12.00
2023-05-19T17:00:24.787Z,13.00
2023-05-19T17:02:53.268Z,12.50
2023-05-19T17:05:21.609Z,11.40
2023-05-19T17:07:50.040Z,12.20
2023-05-19T17:10:18.717Z,12.20
2023-05-19T17:12:47.086Z,12.50
2023-05-19T17:15:15.794Z,13.00
2023-05-19T17:17:44.247Z,12.10
2023-05-19T17:20:13.612Z,12.80
2023-05-19T17:22:42.165Z,13.30
2023-05-19T17:25:10.957Z,13.40
2023-05-19T17:27:39.437Z,13.10
2023-05-19T17:30:09.367Z,14.00
2023-05-19T17:32:39.633Z,14.10
2023-05-19T17:35:08.609Z,13.90
2023-05-19T17:37:37.291Z,12.80
2023-05-19T17:40:08.613Z,13.80
2023-05-19T17:42:36.967Z,14.80
2023-05-19T17:45:07.642Z,13.40
2023-05-19T17:47:36.107Z,13.10
2023-05-19T17:50:05.066Z,14.10
2023-05-19T17:52:34.201Z,14.00
2023-05-19T17:55:03.040Z,13.60
2023-05-19T17:57:35.554Z,13.60
2023-05-19T18:00:05.597Z,13.30
2023-05-19T18:02:34.703Z,13.50
2023-05-19T18:05:04.212Z,12.70
2023-05-19T18:07:37.687Z,13.30
2023-05-19T18:10:08.236Z,14.60
2023-05-19T18:12:36.665Z,12.70
2023-05-19T18:15:06.074Z,13.40
2023-05-19T18:17:34.800Z,13.50
2023-05-19T18:20:03.488Z,12.90
2023-05-19T18:22:31.948Z,14.70
2023-05-19T18:25:01.066Z,11.30
2023-05-19T18:27:29.857Z,13.10
2023-05-19T18:29:58.338Z,13.60
2023-05-19T18:32:26.815Z,13.30
2023-05-19T18:34:55.383Z,15.10
2023-05-19T18:37:23.806Z,15.30
2023-05-19T18:39:52.713Z,14.70
2023-05-19T18:42:21.796Z,15.40
2023-05-19T18:44:50.806Z,16.10
2023-05-19T18:47:20.138Z,15.80
2023-05-19T18:50:14.419Z,16.40
2023-05-19T18:52:42.869Z,16.00
2023-05-19T18:55:11.444Z,15.00
2023-05-19T18:57:39.865Z,15.20
2023-05-19T19:00:09.239Z,16.20
2023-05-19T19:02:37.910Z,14.80
2023-05-19T19:05:09.746Z,14.40
2023-05-19T19:07:42.147Z,15.30
2023-05-19T19:10:22.171Z,14.60
2023-05-19T19:12:50.751Z,15.70
2023-05-19T19:15:19.104Z,14.70
2023-05-19T19:17:47.521Z,13.50
2023-05-19T19:20:16.073Z,15.30
2023-05-19T19:22:44.553Z,14.70
2023-05-19T19:25:13.018Z,15.80
2023-05-19T19:27:41.530Z,15.10
2023-05-19T19:30:10.140Z,15.10
2023-05-19T19:32:38.577Z,14.70
2023-05-19T19:35:07.599Z,17.40
2023-05-19T19:37:36.075Z,16.80
2023-05-19T19:40:05.429Z,17.00
2023-05-19T19:42:34.125Z,16.20
2023-05-19T19:45:02.668Z,16.10
2023-05-19T19:47:31.449Z,16.60
2023-05-19T19:50:01.188Z,15.10
2023-05-19T19:52:29.649Z,16.50
2023-05-19T19:54:58.076Z,15.60
2023-05-19T19:57:27.122Z,16.80
2023-05-19T19:59:57.455Z,15.90
2023-05-19T20:02:26.583Z,18.10
2023-05-19T20:04:55.185Z,17.10
2023-05-19T20:07:23.614Z,17.20
2023-05-19T20:09:53.007Z,16.90
2023-05-19T20:12:22.534Z,17.00
2023-05-19T20:14:54.039Z,18.10
2023-05-19T20:17:22.576Z,17.90
2023-05-19T20:19:51.167Z,17.70
2023-05-19T20:22:19.574Z,17.10
2023-05-19T20:24:47.986Z,17.30
2023-05-19T20:27:16.453Z,17.00
2023-05-19T20:29:47.037Z,16.90
2023-05-19T20:32:15.692Z,16.80
2023-05-19T20:34:44.186Z,18.60
2023-05-19T20:37:13.831Z,17.50
2023-05-19T20:39:42.204Z,18.80
2023-05-19T20:42:11.379Z,18.10
2023-05-19T20:44:39.783Z,17.00
2023-05-19T20:47:08.550Z,19.20
2023-05-19T20:49:37.012Z,17.80
2023-05-19T20:52:05.686Z,19.50
2023-05-19T20:54:34.096Z,19.20
2023-05-19T20:57:06.511Z,19.40
2023-05-19T20:59:38.466Z,16.70
2023-05-19T21:02:07.688Z,18.60
2023-05-19T21:04:37.962Z,19.40
2023-05-19T21:07:06.469Z,19.90
2023-05-19T21:09:34.931Z,19.80
2023-05-19T21:12:03.631Z,19.00
2023-05-19T21:14:32.080Z,18.20
2023-05-19T21:17:00.747Z,18.20
2023-05-19T21:19:29.265Z,18.70
2023-05-19T21:21:57.915Z,20.00
2023-05-19T21:24:26.608Z,17.80
2023-05-19T21:26:55.082Z,18.00
2023-05-19T21:29:23.658Z,19.50
2023-05-19T21:31:52.712Z,19.30
2023-05-19T21:34:21.074Z,17.40
2023-05-19T21:36:52.115Z,19.40
2023-05-19T21:39:20.539Z,18.30
2023-05-19T21:41:49.013Z,18.40
2023-05-19T21:44:17.854Z,19.20
2023-05-19T21:46:46.328Z,19.20
2023-05-19T21:49:14.869Z,18.90
2023-05-19T21:51:43.298Z,20.00
2023-05-19T21:54:11.693Z,19.80
2023-05-19T21:56:40.308Z,20.70
2023-05-19T21:59:09.211Z,21.50
2023-05-19T22:01:38.009Z,20.30
2023-05-19T22:04:06.624Z,18.90
2023-05-19T22:06:35.079Z,21.40
2023-05-19T22:09:04.364Z,20.90
2023-05-19T22:11:32.778Z,18.90
2023-05-19T22:14:01.243Z,18.90
2023-05-19T22:16:30.829Z,18.60
2023-05-19T22:18:59.259Z,21.70
2023-05-19T22:21:27.744Z,20.10
2023-05-19T22:23:56.237Z,19.40
2023-05-19T22:26:24.682Z,20.90
2023-05-19T22:28:53.501Z,19.80
2023-05-19T22:31:22.157Z,21.30
2023-05-19T22:33:50.672Z,19.90
2023-05-19T22:36:19.084Z,19.00
2023-05-19T22:38:47.764Z,20.40
2023-05-19T22:41:16.158Z,21.60
2023-05-19T22:43:44.559Z,20.70
2023-05-19T22:46:13.004Z,19.60
2023-05-19T22:48:41.644Z,19.70
2023-05-19T22:51:10.105Z,20.70
2023-05-19T22:53:38.473Z,20.70
2023-05-19T22:56:07.395Z,20.00
2023-05-19T22:58:35.952Z,19.40
2023-05-19T23:01:04.408Z,20.50
2023-05-19T23:03:32.814Z,20.10
2023-05-19T23:06:01.402Z,18.20
2023-05-19T23:08:29.765Z,19.80
2023-05-19T23:11:02.283Z,18.70
2023-05-19T23:13:31.488Z,18.80
2023-05-19T23:16:00.160Z,18.60
2023-05-19T23:18:28.531Z,19.20
2023-05-19T23:20:56.876Z,19.50
2023-05-19T23:23:25.682Z,20.40
2023-05-19T23:25:54.872Z,19.50
2023-05-19T23:28:23.223Z,19.30
2023-05-19T23:30:54.256Z,19.40
2023-05-19T23:33:23.034Z,19.40
2023-05-19T23:35:51.548Z,18.20
2023-05-19T23:38:19.879Z,19.10
2023-05-19T23:40:48.310Z,17.80
2023-05-19T23:43:16.659Z,19.00
2023-05-19T23:45:45.136Z,19.00
2023-05-19T23:48:13.631Z,18.20
2023-05-19T23:50:42.116Z,19.20
2023-05-19T23:53:10.516Z,20.50
2023-05-19T23:55:38.862Z,19.70
2023-05-19T23:58:07.479Z,19.90
